This is the latest recevied weather packets stored in our database for station/object JE3XST-13. If no packets are shown the sender has not sent any weather packets the latest 1 day(s).
| Time | Temp. | Humidity | Pressure | Rain* | Wind** | Luminosity | Snow |
|---|---|---|---|---|---|---|---|
| 1778091703 | 13.89° C | 92% | 1016 hPa | 0 mm | - | - | - |
| 1778089905 | 13.89° C | 92% | 1016 hPa | 0 mm | - | - | - |
| 1778082703 | 14.44° C | 90% | 1017.2 hPa | 0 mm | - | - | - |
| 1778080904 | 15° C | 90% | 1017.5 hPa | 0 mm | - | - | - |
| 1778071903 | 16.67° C | 84% | 1017.8 hPa | 0 mm | - | - | - |
| 1778070105 | 17.22° C | 82% | 1017.8 hPa | 0 mm | - | - | - |
| 1778062520 | 18.33° C | 78% | 1017.3 hPa | 0 mm | - | - | - |
| 1778057120 | 19.44° C | 74% | 1017.4 hPa | 0 mm | - | - | - |
| 1778055320 | 19.44° C | 73% | 1017.3 hPa | 0 mm | - | - | - |
| 1778049920 | 20.56° C | 66% | 1017.8 hPa | 0 mm | - | - | - |
| 1778048119 | 20.56° C | 65% | 1018.1 hPa | 0 mm | - | - | - |
| 1778042720 | 19.44° C | 62% | 1019 hPa | 0 mm | - | - | - |
| 1778039119 | 18.33° C | 67% | 1019.9 hPa | 0 mm | - | - | - |
| 1778035519 | 18.33° C | 62% | 1020.5 hPa | 0 mm | - | - | - |
| 1778033719 | 18.89° C | 60% | 1020.8 hPa | 0 mm | - | - | - |
| 1778031920 | 18.89° C | 65% | 1020.9 hPa | 0 mm | - | - | - |
| 1778030119 | 18.89° C | 67% | 1020.9 hPa | 0 mm | - | - | - |
| 1778028319 | 18.33° C | 69% | 1021 hPa | 0 mm | - | - | - |
| 1778026520 | 18.33° C | 69% | 1021.2 hPa | 0 mm | - | - | - |
| 1778017520 | 13.89° C | 82% | 1021.6 hPa | 0 mm | - | - | - |
* Rain latest hour (hover to see other rain measurements)
** Current wind speed in m/s (hover to see current wind gust speed)